Terminal Aerodrome Forecast
Issued by NWS Wilmington, NC

Home | Current Version | Previous Version | Text Only | Print | Product List | Glossary On
Versions: 1 2 3 4 5 6 7 8 9 10 11 12 13 14 15 16
000
FTUS42 KILM 050018 CCB
TAFFLO
TAF COR
KFLO 050018Z 0500/0524 16003KT P6SM VCTS SCT025CB BKN060 OVC200
      TEMPO 0500/0503 VRB20G35KT 2SM TSRA BKN020CB OVC040
     FM050400 00000KT P6SM SCT150 BKN250
     FM050900 03005KT P6SM SCT005 BKN011
      TEMPO 0510/0514 BKN005
     FM051500 04010KT P6SM BKN045
     FM051900 05010KT P6SM VCTS SCT040CB BKN060=

USA.gov is the U.S. government's official web portal to all federal, state and local government web resources and services.